Time;durP1;ratioP1;P1;durP2;ratioP2;P2;SDS_P1;SDS_P2;PMS_P1;PMS_P2;Temp;Humidity;BMP_temperature;BMP_pressure;BME280_temperature;BME280_humidity;BME280_pressure;Samples;Min_cycle;Max_cycle;Signal;HPM_P1;HPM_P2
2022/05/27 00:02:04;;;;;;;8.82;2.65;;;;;;;14.80;74.50;101941.28;4937881;28;20036;-90
2022/05/27 00:04:30;;;;;;;8.98;2.67;;;;;;;14.81;74.59;101935.06;4936226;29;20032;-84
2022/05/27 00:06:55;;;;;;;6.15;2.65;;;;;;;14.81;74.65;101937.72;4915462;29;20454;-89
2022/05/27 00:09:23;;;;;;;7.03;2.88;;;;;;;14.76;74.83;101929.25;4915657;29;20037;-85
2022/05/27 00:11:48;;;;;;;10.50;2.70;;;;;;;14.80;74.76;101929.84;4935598;29;20914;-89
2022/05/27 00:14:14;;;;;;;6.13;2.80;;;;;;;14.80;74.92;101936.00;4937212;28;20058;-84
2022/05/27 00:16:40;;;;;;;8.30;2.58;;;;;;;14.72;75.19;101936.56;4933872;29;20028;-85
2022/05/27 00:19:05;;;;;;;7.78;2.63;;;;;;;14.74;75.20;101933.81;4917556;29;20048;-84
2022/05/27 00:21:30;;;;;;;6.82;2.75;;;;;;;14.76;75.36;101923.09;4935520;29;20012;-84
2022/05/27 00:23:56;;;;;;;7.82;2.53;;;;;;;14.75;76.12;101924.91;4932524;29;20046;-84
2022/05/27 00:26:22;;;;;;;7.65;2.58;;;;;;;14.72;76.33;101919.84;4917792;29;20043;-84
2022/05/27 00:28:47;;;;;;;10.63;2.60;;;;;;;14.74;76.39;101931.16;4927394;29;20465;-85
2022/05/27 00:31:13;;;;;;;5.13;2.55;;;;;;;14.71;76.32;101926.09;4935804;28;20036;-85
2022/05/27 00:33:39;;;;;;;11.43;3.00;;;;;;;14.69;76.27;101928.00;4918433;29;20038;-82
2022/05/27 00:36:09;;;;;;;5.15;2.42;;;;;;;14.70;76.21;101924.41;4936168;29;20036;-83
2022/05/27 00:38:35;;;;;;;5.40;2.20;;;;;;;14.68;76.20;101921.03;4934271;29;20111;-83
2022/05/27 00:41:00;;;;;;;6.00;2.75;;;;;;;14.70;76.18;101924.41;4933875;29;20667;-83
2022/05/27 00:43:26;;;;;;;7.20;2.63;;;;;;;14.69;76.03;101915.59;4935315;29;20040;-83
2022/05/27 00:46:15;;;;;;;7.93;2.50;;;;;;;14.74;75.65;101915.25;4935645;28;20030;-87
2022/05/27 00:48:46;;;;;;;9.30;2.88;;;;;;;14.72;76.08;101919.84;4936010;28;20572;-85
2022/05/27 00:51:17;;;;;;;7.97;2.50;;;;;;;14.72;76.41;101915.38;4917709;29;20067;-83
2022/05/27 00:53:49;;;;;;;7.32;2.70;;;;;;;14.72;76.51;101917.19;4936020;28;20032;-83
2022/05/27 00:56:15;;;;;;;8.05;3.13;;;;;;;14.70;76.80;101919.09;4935088;29;20110;-83
2022/05/27 00:58:48;;;;;;;6.70;3.00;;;;;;;14.73;76.97;101924.16;4917934;29;20566;-86
2022/05/27 01:01:14;;;;;;;9.48;2.92;;;;;;;14.71;77.35;101912.84;4916470;29;20453;-83
2022/05/27 01:03:40;;;;;;;12.13;3.53;;;;;;;14.69;77.82;101914.75;4922437;29;20028;-88
2022/05/27 01:06:09;;;;;;;7.20;3.10;;;;;;;14.66;78.19;101907.03;4933445;29;20490;-86
2022/05/27 01:08:45;;;;;;;9.73;3.15;;;;;;;14.67;78.92;101908.72;4934916;29;20026;-83
2022/05/27 01:11:16;;;;;;;10.43;3.50;;;;;;;14.67;79.86;101908.72;4903789;29;20115;-89
2022/05/27 01:14:14;;;;;;;8.77;3.65;;;;;;;14.60;79.44;101912.81;4915798;29;20111;-84
2022/05/27 01:17:15;;;;;;;11.80;3.70;;;;;;;14.54;80.64;101908.81;4913231;29;20489;-84
2022/05/27 01:23:21;;;;;;;12.60;4.05;;;;;;;14.44;81.62;101906.97;4934605;29;20099;-85
2022/05/27 01:26:22;;;;;;;9.45;3.78;;;;;;;14.45;82.00;101906.00;4880407;29;20450;-85
2022/05/27 01:29:13;;;;;;;9.73;4.30;;;;;;;14.40;82.97;101907.13;4926122;29;20031;-88
2022/05/27 01:31:47;;;;;;;15.60;4.25;;;;;;;14.30;84.18;101900.81;4920738;29;20032;-87
2022/05/27 01:34:24;;;;;;;8.02;4.50;;;;;;;14.27;84.59;101906.31;4933287;29;20051;-87
2022/05/27 01:37:00;;;;;;;15.07;4.80;;;;;;;14.23;84.56;101899.56;4934091;29;20462;-86
2022/05/27 01:39:44;;;;;;;11.38;4.72;;;;;;;14.19;84.61;101906.03;4933450;29;20028;-86
2022/05/27 01:42:15;;;;;;;10.60;4.68;;;;;;;14.17;85.30;101900.03;4934960;29;20045;-86
2022/05/27 01:44:46;;;;;;;13.82;4.70;;;;;;;14.14;86.04;101900.25;4934042;29;20112;-87
2022/05/27 01:47:22;;;;;;;11.70;5.00;;;;;;;14.14;86.58;101900.25;4934338;29;20035;-87
2022/05/27 01:50:17;;;;;;;13.80;5.00;;;;;;;14.08;87.03;101900.69;4929128;29;20053;-92
2022/05/27 01:53:02;;;;;;;14.25;5.30;;;;;;;14.04;87.54;101896.56;4894056;29;20029;-87
2022/05/27 01:56:42;;;;;;;;;;;;;;;;;;;;;
2022/05/27 02:13:45;;;;;;;15.23;6.25;;;;;;;13.71;91.33;101898.00;4838620;29;20519;-91
2022/05/27 02:20:08;;;;;;;16.65;7.18;;;;;;;13.65;93.14;101898.44;4837825;29;20053;-89
2022/05/27 02:22:48;;;;;;;15.02;7.05;;;;;;;13.65;93.86;101908.19;4835639;29;20033;-89
2022/05/27 02:25:34;;;;;;;13.55;7.15;;;;;;;13.56;93.88;101898.22;4862931;29;20064;-88
2022/05/27 02:28:25;;;;;;;14.98;7.40;;;;;;;13.53;93.77;101901.91;4913657;29;20020;-87
2022/05/27 02:31:01;;;;;;;14.13;7.20;;;;;;;13.53;94.76;101893.97;4913025;29;20119;-87
2022/05/27 02:36:44;;;;;;;15.68;7.50;;;;;;;13.57;95.55;101900.75;4915098;29;20047;-89
2022/05/27 02:39:17;;;;;;;15.55;7.82;;;;;;;13.48;96.09;101882.88;4917399;29;20019;-90
2022/05/27 02:42:19;;;;;;;19.67;8.10;;;;;;;13.48;95.77;101883.72;4912046;29;20036;-91
2022/05/27 02:45:41;;;;;;;;;;;;;;;;;;;;;
2022/05/27 02:47:55;;;;;;;14.43;8.68;;;;;;;13.45;96.66;101891.88;4915477;29;20040;-90
2022/05/27 02:50:44;;;;;;;14.40;9.00;;;;;;;13.43;97.31;101887.66;4916850;29;20027;-90
2022/05/27 02:54:05;;;;;;;;;;;;;;;;;;;;;
2022/05/27 03:05:00;;;;;;;;;;;;;;;;;;;;;
2022/05/27 03:11:54;;;;;;;15.43;10.38;;;;;;;13.35;98.26;101871.47;4766176;30;20047;-89
2022/05/27 03:15:07;;;;;;;13.98;10.82;;;;;;;13.35;98.38;101876.78;4794431;29;20055;-90
2022/05/27 03:25:06;;;;;;;14.35;11.15;;;;;;;13.28;98.96;101878.16;4838182;29;20046;-89
2022/05/27 03:32:10;;;;;;;;;;;;;;;;;;;;;
2022/05/27 03:42:31;;;;;;;;;;;;;;;;;;;;;
2022/05/27 03:49:37;;;;;;;19.20;14.85;;;;;;;13.33;100.00;101889.25;4829767;29;20046;-90
2022/05/27 03:52:18;;;;;;;;;;;;;;;13.40;96.76;101909.03;4855809;29;20041;-89
2022/05/27 03:55:34;;;;;;;22.17;14.90;;;;;;;13.37;100.00;101894.22;4873979;29;19915;-88
2022/05/27 03:57:59;;;;;;;16.58;12.75;;;;;;;13.35;100.00;101889.97;4882266;29;20035;-89
2022/05/27 04:04:45;;;;;;;;;;;;;;;;;;;;;
2022/05/27 04:10:33;;;;;;;6.93;5.18;;;;;;;13.23;98.36;101891.69;4962622;23;20078;-82
2022/05/27 04:12:58;;;;;;;7.93;5.65;;;;;;;13.23;98.98;101894.31;4951066;28;20035;-82
2022/05/27 04:15:24;;;;;;;9.90;6.93;;;;;;;13.24;99.72;101897.81;4931609;29;20023;-82
2022/05/27 04:17:49;;;;;;;9.48;8.05;;;;;;;13.26;99.99;101904.69;4904943;28;20043;-82
2022/05/27 04:20:17;;;;;;;13.65;9.32;;;;;;;13.27;100.00;101901.09;4952668;29;20019;-82
2022/05/27 04:22:43;;;;;;;13.75;10.45;;;;;;;13.30;100.00;101897.38;4954758;28;20030;-82
2022/05/27 04:25:09;;;;;;;13.63;10.43;;;;;;;13.33;100.00;101913.03;4966495;28;20031;-82
2022/05/27 04:27:35;;;;;;;13.52;10.07;;;;;;;13.35;100.00;101911.97;4947290;28;20041;-81
2022/05/27 04:30:01;;;;;;;14.77;10.55;;;;;;;13.38;100.00;101910.91;4951283;28;20085;-80
2022/05/27 04:32:26;;;;;;;15.27;10.52;;;;;;;13.42;100.00;101896.53;4951921;28;20097;-80
2022/05/27 04:34:53;;;;;;;15.18;10.50;;;;;;;13.45;100.00;101906.91;4933738;28;20556;-80
2022/05/27 04:37:19;;;;;;;13.23;11.23;;;;;;;13.47;100.00;101905.00;4933642;28;20038;-79
2022/05/27 04:39:45;;;;;;;16.75;11.82;;;;;;;13.48;100.00;101898.75;4954069;28;20045;-80
2022/05/27 04:42:10;;;;;;;17.08;11.52;;;;;;;13.52;100.00;101902.03;4951913;28;20441;-79
2022/05/27 04:44:36;;;;;;;16.88;11.93;;;;;;;13.51;100.00;101898.53;4963695;28;20027;-80
2022/05/27 04:47:03;;;;;;;16.27;11.52;;;;;;;13.55;100.00;101897.38;4953716;28;20532;-80
2022/05/27 04:52:16;;;;;;;17.65;12.40;;;;;;;13.59;100.00;101901.50;4972562;28;20101;-80
2022/05/27 04:54:42;;;;;;;18.45;11.45;;;;;;;13.65;100.00;101909.03;4954029;28;20458;-79
2022/05/27 04:57:10;;;;;;;17.33;11.95;;;;;;;13.67;100.00;101909.75;4940017;28;20051;-80
2022/05/27 04:59:39;;;;;;;16.85;11.18;;;;;;;13.73;100.00;101904.03;4951972;28;20473;-79
2022/05/27 05:02:05;;;;;;;17.90;11.73;;;;;;;13.78;100.00;101909.84;4961735;28;20030;-79
2022/05/27 05:07:07;;;;;;;17.42;11.32;;;;;;;13.88;100.00;101911.84;4951396;28;20044;-80
2022/05/27 05:09:32;;;;;;;20.05;11.90;;;;;;;13.93;100.00;101915.00;4952769;28;20027;-80
2022/05/27 05:11:58;;;;;;;16.80;11.10;;;;;;;13.98;100.00;101915.50;4953817;28;20109;-79
2022/05/27 05:14:23;;;;;;;19.35;11.82;;;;;;;14.03;100.00;101914.25;4966838;28;20057;-82
2022/05/27 05:16:49;;;;;;;18.15;11.68;;;;;;;14.11;100.00;101916.34;4950650;28;20109;-82
2022/05/27 05:19:14;;;;;;;18.50;11.77;;;;;;;14.17;100.00;101917.69;4969220;28;20033;-82
2022/05/27 05:21:39;;;;;;;24.73;11.70;;;;;;;14.22;100.00;101921.72;4970648;28;20506;-82
2022/05/27 05:24:05;;;;;;;19.95;11.40;;;;;;;14.20;100.00;101926.25;4954040;28;20022;-79
2022/05/27 05:26:30;;;;;;;20.05;10.73;;;;;;;14.23;100.00;101926.03;4970458;28;20030;-79
2022/05/27 05:28:56;;;;;;;19.33;10.88;;;;;;;14.24;100.00;101919.78;4971392;28;20076;-80
2022/05/27 05:31:21;;;;;;;22.45;11.35;;;;;;;14.21;100.00;101930.59;4933448;28;20472;-80
2022/05/27 05:33:46;;;;;;;21.65;10.18;;;;;;;14.24;100.00;101935.69;4950103;28;20482;-79
2022/05/27 05:36:12;;;;;;;18.10;9.85;;;;;;;14.20;100.00;101942.16;4952323;28;20023;-79
2022/05/27 05:38:38;;;;;;;24.90;9.00;;;;;;;14.22;99.66;101947.31;4949657;28;20027;-80
2022/05/27 05:41:05;;;;;;;14.32;9.07;;;;;;;14.25;99.37;101945.31;4952412;28;20031;-80
2022/05/27 05:43:30;;;;;;;20.08;9.02;;;;;;;14.29;99.44;101943.28;4951540;28;20045;-80
2022/05/27 05:45:55;;;;;;;19.70;9.15;;;;;;;14.32;99.54;101941.25;4950076;28;20485;-80
2022/05/27 05:48:21;;;;;;;20.15;8.68;;;;;;;14.35;99.19;101948.13;4952074;28;20055;-80
2022/05/27 05:50:46;;;;;;;18.13;8.10;;;;;;;14.38;98.98;101959.34;4948191;28;20117;-79
2022/05/27 05:53:11;;;;;;;16.85;7.30;;;;;;;14.39;98.04;101955.75;4936548;28;20027;-79
2022/05/27 05:55:37;;;;;;;20.52;7.53;;;;;;;14.39;97.92;101960.19;4966377;28;20027;-79
2022/05/27 05:58:03;;;;;;;23.67;7.50;;;;;;;14.44;97.37;101957.28;4934578;28;20029;-79
2022/05/27 06:00:32;;;;;;;13.77;6.47;;;;;;;14.45;97.66;101951.00;4933669;28;20031;-79
2022/05/27 06:02:57;;;;;;;13.48;6.53;;;;;;;14.54;97.25;101966.22;4951751;28;20086;-79
2022/05/27 06:05:24;;;;;;;19.00;7.07;;;;;;;14.56;96.05;101957.22;4951017;28;20051;-79
2022/05/27 06:07:51;;;;;;;18.33;7.00;;;;;;;14.64;96.81;101946.06;4944924;28;20548;-79
2022/05/27 06:10:17;;;;;;;14.93;6.13;;;;;;;14.67;95.64;101953.78;4953557;28;20027;-79
2022/05/27 06:12:43;;;;;;;17.35;6.03;;;;;;;14.64;92.63;101946.91;4959618;28;20085;-79
2022/05/27 06:15:12;;;;;;;13.73;6.10;;;;;;;14.72;95.37;101948.97;4965077;28;20037;-79
2022/05/27 06:17:38;;;;;;;13.82;6.20;;;;;;;14.76;95.20;101942.50;4956495;28;20023;-79
2022/05/27 06:20:05;;;;;;;16.25;5.55;;;;;;;14.71;94.04;101947.28;4945141;28;20110;-79
2022/05/27 06:22:31;;;;;;;13.15;5.00;;;;;;;14.73;92.74;101950.66;4950944;28;20035;-78
2022/05/27 06:24:58;;;;;;;11.27;5.15;;;;;;;14.73;92.74;101954.16;4956616;28;20023;-78
2022/05/27 06:27:24;;;;;;;12.30;5.07;;;;;;;14.81;93.23;101961.56;4963561;28;20030;-77
2022/05/27 06:34:23;;;;;;;15.15;4.57;;;;;;;14.83;91.17;101964.09;4951296;28;20053;-78
2022/05/27 06:35:37;;;;;;;9.90;4.18;;;;;;;14.84;90.85;101964.00;4948629;28;20055;-77
2022/05/27 06:38:03;;;;;;;13.65;4.35;;;;;;;14.88;90.48;101969.91;4934234;28;20031;-77
2022/05/27 06:40:29;;;;;;;9.52;3.55;;;;;;;14.88;86.31;101967.25;4953531;28;20086;-77
2022/05/27 06:42:55;;;;;;;9.77;3.35;;;;;;;14.87;85.67;101971.72;4954892;28;20038;-77
2022/05/27 06:45:20;;;;;;;12.20;4.10;;;;;;;14.94;87.73;101969.44;4966552;28;20031;-78
2022/05/27 06:47:45;;;;;;;10.98;3.92;;;;;;;15.01;87.79;101971.53;4932445;28;20031;-78
2022/05/27 06:50:11;;;;;;;11.20;3.50;;;;;;;15.09;86.27;101973.59;4951525;28;20035;-79
2022/05/27 06:52:37;;;;;;;14.27;3.75;;;;;;;15.11;83.98;101970.81;4935264;28;20047;-79
2022/05/27 06:55:03;;;;;;;13.40;3.45;;;;;;;15.20;83.67;101980.72;4960062;28;20520;-79
2022/05/27 06:57:33;;;;;;;11.93;3.70;;;;;;;15.32;84.30;101980.66;4960204;28;20038;-79
2022/05/27 07:00:00;;;;;;;8.07;2.95;;;;;;;15.53;82.65;101983.47;4946663;28;20026;-79
2022/05/27 07:02:25;;;;;;;11.32;3.40;;;;;;;15.65;79.49;101982.59;4954073;28;20031;-78
2022/05/27 07:04:50;;;;;;;12.38;3.38;;;;;;;15.87;81.30;101984.41;4963984;28;20445;-79
2022/05/27 07:07:16;;;;;;;10.25;3.30;;;;;;;16.07;80.27;101977.53;4928850;29;20494;-79
2022/05/27 07:09:41;;;;;;;11.45;3.70;;;;;;;16.26;79.97;101985.72;4930531;29;20031;-79
2022/05/27 07:12:11;;;;;;;9.70;2.92;;;;;;;16.30;74.61;101978.34;4931387;29;20040;-79
2022/05/27 07:14:38;;;;;;;10.55;2.90;;;;;;;16.19;73.99;101976.56;4929894;29;20024;-79
2022/05/27 07:17:04;;;;;;;9.13;3.20;;;;;;;16.23;75.75;101983.31;4931222;29;20031;-78
2022/05/27 07:19:30;;;;;;;9.10;3.10;;;;;;;16.13;75.98;101971.75;4929522;29;20024;-80
2022/05/27 07:21:56;;;;;;;12.95;3.22;;;;;;;16.17;76.54;101977.66;4931616;29;20079;-78
2022/05/27 07:24:22;;;;;;;8.02;2.70;;;;;;;16.27;71.58;101984.75;4931499;29;20034;-79
2022/05/27 07:26:47;;;;;;;11.57;3.05;;;;;;;16.54;73.49;101984.38;4934112;29;20036;-78
2022/05/27 07:29:13;;;;;;;10.15;3.08;;;;;;;16.77;72.08;101976.34;4932454;29;20046;-83
2022/05/27 07:31:40;;;;;;;9.38;2.80;;;;;;;16.96;71.68;101988.97;4949377;28;20031;-83
2022/05/27 07:34:06;;;;;;;12.80;2.85;;;;;;;17.17;68.52;101992.50;4937032;29;20019;-83
2022/05/27 07:36:31;;;;;;;12.98;2.85;;;;;;;17.29;68.96;101994.16;4939035;28;20731;-82
2022/05/27 07:38:56;;;;;;;9.95;2.70;;;;;;;17.45;68.73;101981.22;4934921;29;20035;-82
2022/05/27 07:41:23;;;;;;;8.32;2.58;;;;;;;17.60;67.62;101986.22;4934415;29;20039;-83
2022/05/27 07:43:49;;;;;;;10.45;2.83;;;;;;;17.79;65.81;101991.69;4943274;29;20035;-84
2022/05/27 07:46:16;;;;;;;6.63;2.47;;;;;;;17.83;66.06;101993.97;4950014;28;20042;-83
2022/05/27 07:48:42;;;;;;;8.88;2.55;;;;;;;17.99;65.05;101988.13;4954205;28;20481;-83
2022/05/27 07:51:08;;;;;;;10.88;2.90;;;;;;;18.13;66.49;101995.78;4954543;28;20031;-84
2022/05/27 07:53:35;;;;;;;9.05;2.75;;;;;;;18.30;63.83;101990.78;4952919;28;20034;-83
2022/05/27 07:56:06;;;;;;;8.73;3.00;;;;;;;18.33;64.03;102001.16;4953825;28;20164;-84
2022/05/27 07:58:31;;;;;;;8.30;3.03;;;;;;;18.48;62.85;101989.16;4949244;28;20123;-85
2022/05/27 08:00:56;;;;;;;8.75;2.90;;;;;;;18.63;64.59;101982.47;4938728;29;20122;-84
2022/05/27 08:03:22;;;;;;;9.35;3.20;;;;;;;18.70;62.63;101982.75;4930965;29;20066;-83
2022/05/27 08:05:47;;;;;;;5.80;2.75;;;;;;;18.72;59.91;101984.31;4941308;28;20356;-83
2022/05/27 08:08:13;;;;;;;9.88;3.30;;;;;;;18.79;62.79;101977.44;4965515;28;20069;-83
2022/05/27 08:10:40;;;;;;;6.60;2.75;;;;;;;18.94;62.75;101985.03;4962387;28;20074;-84
2022/05/27 08:13:06;;;;;;;8.68;2.65;;;;;;;19.11;60.80;101987.00;4952031;28;20118;-85
2022/05/27 08:15:32;;;;;;;5.63;2.70;;;;;;;18.89;59.10;101996.13;4936159;28;20389;-84
2022/05/27 08:17:58;;;;;;;8.60;2.83;;;;;;;18.56;62.73;101996.47;4953588;28;20118;-83
2022/05/27 08:20:27;;;;;;;10.55;3.53;;;;;;;18.26;64.09;102008.00;4920172;28;20023;-83
2022/05/27 08:22:53;;;;;;;10.23;3.05;;;;;;;18.00;65.51;102016.44;4962628;28;20337;-83
2022/05/27 08:25:21;;;;;;;9.10;2.53;;;;;;;17.71;64.65;102016.31;4937703;28;20449;-83
2022/05/27 08:27:46;;;;;;;8.88;3.03;;;;;;;17.37;66.00;102020.09;4963120;28;20073;-83
2022/05/27 08:30:17;;;;;;;12.02;3.13;;;;;;;17.16;66.58;102020.91;4947243;28;20055;-83
2022/05/27 08:32:43;;;;;;;9.60;2.90;;;;;;;17.38;67.54;102014.66;4952987;28;20031;-83
2022/05/27 08:38:02;;;;;;;10.85;2.85;;;;;;;18.19;63.43;102007.72;4958434;28;20054;-83
2022/05/27 08:40:52;;;;;;;6.43;2.97;;;;;;;18.59;64.53;102009.53;4969035;28;20050;-83
2022/05/27 08:43:33;;;;;;;7.45;3.03;;;;;;;18.64;61.18;102009.97;4962872;28;20034;-83
2022/05/27 08:46:13;;;;;;;8.77;3.15;;;;;;;18.75;61.06;102007.19;4955295;28;20036;-83
2022/05/27 08:48:42;;;;;;;11.95;3.35;;;;;;;18.95;60.20;102013.41;4953435;28;20027;-83
2022/05/27 08:51:22;;;;;;;11.55;3.00;;;;;;;19.06;60.48;102011.44;4968333;28;20023;-83
2022/05/27 08:53:53;;;;;;;8.95;3.78;;;;;;;18.82;60.17;102020.84;4953585;28;20050;-83
2022/05/27 08:59:41;;;;;;;8.52;3.00;;;;;;;18.85;59.08;102023.22;4961818;28;20050;-83
2022/05/27 09:02:18;;;;;;;8.35;2.78;;;;;;;18.74;57.29;102016.16;4945108;28;20043;-83
2022/05/27 09:04:50;;;;;;;11.05;2.85;;;;;;;18.84;57.20;102024.22;4946646;28;20058;-82
2022/05/27 09:07:27;;;;;;;11.00;2.67;;;;;;;18.98;55.45;102023.78;4970501;28;20062;-84
2022/05/27 09:09:54;;;;;;;8.75;2.20;;;;;;;19.17;55.29;102031.78;4935088;28;20027;-83
2022/05/27 09:12:40;;;;;;;7.10;2.45;;;;;;;19.32;56.14;102027.72;4961249;28;20428;-83
2022/05/27 09:15:26;;;;;;;10.07;2.85;;;;;;;19.32;57.65;102027.72;4965173;28;20019;-83
2022/05/27 09:18:13;;;;;;;5.65;2.40;;;;;;;19.40;54.11;102030.53;4955024;28;20719;-83
2022/05/27 09:20:57;;;;;;;9.82;2.90;;;;;;;19.44;53.64;102031.06;4961671;28;20492;-83
2022/05/27 09:23:31;;;;;;;7.90;2.22;;;;;;;19.56;54.13;102029.13;4959069;28;20076;-83
2022/05/27 09:26:02;;;;;;;7.07;2.00;;;;;;;19.82;52.33;102043.56;4967143;28;20460;-84
2022/05/27 09:28:39;;;;;;;11.73;2.70;;;;;;;19.71;53.26;102044.56;4961620;28;20106;-85
2022/05/27 09:31:08;;;;;;;9.82;2.65;;;;;;;19.32;50.24;102049.09;4967022;28;20034;-84
2022/05/27 09:33:36;;;;;;;6.32;2.42;;;;;;;19.16;51.41;102059.44;4953213;28;20510;-85
2022/05/27 09:36:07;;;;;;;14.95;2.88;;;;;;;18.72;53.20;102053.63;4964413;28;20609;-84
2022/05/27 09:38:35;;;;;;;8.52;2.60;;;;;;;18.58;52.88;102050.50;4938969;28;20031;-83
2022/05/27 09:41:23;;;;;;;11.02;2.85;;;;;;;18.50;53.90;102067.16;4966331;28;20030;-84
2022/05/27 09:43:56;;;;;;;9.20;2.85;;;;;;;18.47;53.43;102083.44;4953662;28;20868;-83
2022/05/27 09:46:32;;;;;;;8.68;2.88;;;;;;;18.49;53.13;102070.81;4959745;28;20498;-83
2022/05/27 09:48:58;;;;;;;10.32;3.10;;;;;;;18.38;53.42;102074.38;4938971;28;20078;-84
2022/05/27 09:51:26;;;;;;;11.40;3.10;;;;;;;18.44;52.49;102078.38;4967918;28;20488;-83
2022/05/27 09:54:10;;;;;;;15.98;2.80;;;;;;;18.51;52.61;102079.50;4954131;28;20026;-83
2022/05/27 09:56:41;;;;;;;10.63;2.88;;;;;;;18.65;51.57;102076.50;4959395;28;20452;-83
2022/05/27 09:59:39;;;;;;;9.80;3.13;;;;;;;18.85;51.96;102076.56;4964607;28;20789;-83
2022/05/27 10:02:34;;;;;;;11.30;2.70;;;;;;;19.06;52.01;102074.63;4940149;28;20034;-83
2022/05/27 10:05:23;;;;;;;11.43;2.72;;;;;;;19.40;52.30;102072.38;4965687;28;20041;-83
2022/05/27 10:07:59;;;;;;;9.27;2.53;;;;;;;19.36;49.21;102082.50;4932026;28;20057;-84
2022/05/27 10:10:34;;;;;;;13.10;3.13;;;;;;;19.16;46.28;102086.13;4961156;28;20037;-84
2022/05/27 10:13:19;;;;;;;8.43;2.78;;;;;;;18.98;47.51;102071.81;4947772;28;20544;-83
2022/05/27 10:15:45;;;;;;;8.90;2.58;;;;;;;19.05;47.39;102072.94;4953859;28;20046;-84
2022/05/27 10:18:26;;;;;;;10.13;2.65;;;;;;;19.39;48.91;102066.22;4958233;28;20138;-83
2022/05/27 10:21:03;;;;;;;12.80;2.58;;;;;;;19.64;47.40;102064.84;4968320;28;20037;-83
2022/05/27 10:23:37;;;;;;;8.23;2.40;;;;;;;19.78;46.42;102074.22;4937110;28;20031;-84
2022/05/27 10:26:33;;;;;;;12.00;2.80;;;;;;;19.90;46.94;102080.22;4934500;28;20027;-84
2022/05/27 10:29:07;;;;;;;6.82;2.10;;;;;;;20.19;46.18;102069.47;4950908;28;20067;-84
2022/05/27 10:31:34;;;;;;;9.98;3.05;;;;;;;20.20;43.09;102072.00;4933965;28;20019;-84
2022/05/27 10:34:02;;;;;;;11.23;2.30;;;;;;;19.96;44.29;102072.47;4949829;28;20027;-84
2022/05/27 10:36:59;;;;;;;7.15;2.38;;;;;;;19.77;46.09;102083.22;4951598;28;20078;-84
2022/05/27 10:39:36;;;;;;;7.88;2.40;;;;;;;19.61;44.98;102080.25;4951607;28;20226;-84
2022/05/27 10:42:21;;;;;;;9.07;2.58;;;;;;;19.70;45.97;102074.09;4950993;28;20023;-84
2022/05/27 10:45:15;;;;;;;9.32;2.72;;;;;;;19.90;46.34;102070.38;4950756;28;20023;-84
2022/05/27 10:48:24;;;;;;;10.23;2.78;;;;;;;19.97;47.90;102076.81;4950903;28;20030;-84
2022/05/27 10:51:11;;;;;;;12.05;3.08;;;;;;;19.68;46.85;102079.56;4949626;28;20071;-84
2022/05/27 10:54:07;;;;;;;8.57;2.50;;;;;;;19.28;47.44;102082.38;4932800;28;20024;-83
2022/05/27 10:56:33;;;;;;;11.10;2.50;;;;;;;19.13;45.75;102075.75;4950619;28;20057;-83
2022/05/27 11:02:36;;;;;;;;;;;;;;;19.40;47.13;102083.06;4955634;28;20046;-83
2022/05/27 11:05:35;;;;;;;9.02;2.75;;;;;;;19.45;44.15;102090.66;4952535;28;20296;-84
2022/05/27 11:08:26;;;;;;;9.18;2.88;;;;;;;19.54;44.21;102076.47;4952991;28;20142;-83
2022/05/27 11:10:51;;;;;;;6.60;1.90;;;;;;;19.66;42.91;102072.69;4936916;28;20031;-83
2022/05/27 11:16:47;;;;;;;8.82;3.03;;;;;;;20.17;44.03;102084.81;4953919;28;20038;-83
2022/05/27 11:19:49;;;;;;;9.93;2.63;;;;;;;20.37;44.42;102073.03;4934874;28;20404;-83
2022/05/27 11:22:35;;;;;;;8.38;2.42;;;;;;;19.95;42.60;102073.47;4954949;28;20108;-83
2022/05/27 11:25:29;;;;;;;8.48;2.75;;;;;;;19.66;43.94;102078.03;4936714;28;20126;-83
2022/05/27 11:28:03;;;;;;;7.97;2.40;;;;;;;19.68;45.06;102078.72;4943035;28;20594;-83
2022/05/27 11:30:50;;;;;;;10.43;2.63;;;;;;;19.90;44.00;102078.41;4957707;28;20027;-83
2022/05/27 11:33:15;;;;;;;8.52;2.42;;;;;;;19.95;43.46;102077.97;4952859;28;20039;-82
2022/05/27 11:35:55;;;;;;;7.15;2.28;;;;;;;19.78;44.29;102086.72;4943454;28;20025;-82
2022/05/27 11:38:54;;;;;;;11.43;2.72;;;;;;;19.51;45.14;102090.94;4973007;28;20045;-82
2022/05/27 11:41:38;;;;;;;11.60;3.13;;;;;;;19.12;47.16;102094.56;4973631;28;20503;-82
2022/05/27 11:44:22;;;;;;;10.25;2.70;;;;;;;19.04;46.72;102097.91;4952072;28;20505;-83
2022/05/27 11:47:07;;;;;;;10.05;2.80;;;;;;;19.20;47.33;102092.88;4934652;28;20032;-82
2022/05/27 11:49:39;;;;;;;14.00;3.00;;;;;;;19.36;45.30;102093.19;4935783;28;20390;-82
2022/05/27 11:52:16;;;;;;;7.32;2.50;;;;;;;19.55;46.35;102091.50;4953796;28;20031;-83
2022/05/27 11:55:06;;;;;;;13.23;2.90;;;;;;;19.75;45.95;102090.53;4921120;28;20090;-83
2022/05/27 11:58:02;;;;;;;8.52;2.63;;;;;;;20.08;42.31;102088.34;4953685;28;20098;-82
2022/05/27 12:00:33;;;;;;;10.13;2.33;;;;;;;20.19;42.10;102098.88;4952276;28;20042;-82
2022/05/27 12:03:09;;;;;;;11.00;2.60;;;;;;;20.22;40.96;102095.91;4955739;28;20085;-82
2022/05/27 12:05:42;;;;;;;10.27;2.90;;;;;;;20.25;43.60;102092.94;4972418;28;20381;-82
2022/05/27 12:08:37;;;;;;;10.02;2.95;;;;;;;20.15;43.93;102100.16;4955422;28;20031;-82
2022/05/27 12:11:19;;;;;;;10.15;2.88;;;;;;;19.98;43.23;102099.88;4941631;28;20070;-83
2022/05/27 12:14:03;;;;;;;9.23;2.50;;;;;;;20.01;43.41;102099.63;4935092;28;20370;-82
2022/05/27 12:16:38;;;;;;;10.93;2.40;;;;;;;19.89;42.77;102095.41;4951187;28;20046;-82
2022/05/27 12:19:08;;;;;;;6.22;2.20;;;;;;;19.90;41.88;102094.44;4953373;28;20646;-82
2022/05/27 12:21:41;;;;;;;9.13;2.58;;;;;;;19.99;41.53;102095.38;4952345;28;20397;-82
2022/05/27 12:24:24;;;;;;;8.48;2.47;;;;;;;20.18;42.69;102095.34;4953558;28;20450;-82
2022/05/27 12:26:55;;;;;;;;;;;;;;;20.37;43.18;102098.94;4952728;28;20031;-80
2022/05/27 12:29:22;;;;;;;9.43;2.40;;;;;;;20.60;42.01;102101.13;4954803;28;20402;-81
2022/05/27 12:31:49;;;;;;;9.38;2.58;;;;;;;20.76;41.76;102094.28;4970498;28;20100;-81
2022/05/27 12:34:27;;;;;;;10.52;2.35;;;;;;;20.80;42.53;102101.00;4951300;28;20027;-84
2022/05/27 12:37:00;;;;;;;7.80;2.20;;;;;;;20.88;40.13;102087.75;4935265;28;20035;-81
2022/05/27 12:39:31;;;;;;;7.47;2.13;;;;;;;21.13;41.15;102081.63;4953791;28;20033;-81
2022/05/27 12:42:12;;;;;;;11.77;2.92;;;;;;;21.25;40.68;102085.84;4972003;28;20031;-81
2022/05/27 12:44:40;;;;;;;9.17;2.33;;;;;;;21.25;36.60;102085.84;4971763;28;20034;-82
2022/05/27 12:47:16;;;;;;;8.07;1.95;;;;;;;21.39;38.27;102100.50;4972384;28;20270;-81
2022/05/27 12:49:44;;;;;;;10.32;2.35;;;;;;;21.41;38.29;102084.28;4969756;28;20085;-82
2022/05/27 12:52:29;;;;;;;7.93;2.20;;;;;;;21.23;39.19;102092.34;4934325;28;20027;-80
2022/05/27 12:54:55;;;;;;;6.57;2.25;;;;;;;21.14;38.99;102106.56;4934417;28;20050;-81
2022/05/27 13:03:34;;;;;;;11.02;2.80;;;;;;;20.61;40.66;102110.84;4952524;28;20527;-82
2022/05/27 13:06:11;;;;;;;10.57;2.65;;;;;;;20.65;40.10;102122.91;4929454;29;20059;-82
2022/05/27 13:09:05;;;;;;;14.82;2.50;;;;;;;20.47;41.39;102119.34;4929894;29;20067;-81
2022/05/27 13:11:30;;;;;;;12.63;3.05;;;;;;;19.88;41.03;102112.44;4942126;29;20051;-81
2022/05/27 13:14:05;;;;;;;7.55;2.67;;;;;;;19.78;42.24;102116.94;4933635;29;20031;-83
2022/05/27 13:17:03;;;;;;;11.80;2.75;;;;;;;19.64;41.16;102120.06;4951552;29;20031;-82
2022/05/27 13:19:51;;;;;;;13.43;2.80;;;;;;;19.80;40.63;102117.66;4953457;28;20023;-82
2022/05/27 13:22:38;;;;;;;9.13;2.55;;;;;;;19.97;41.33;102124.06;4953286;28;20047;-82
2022/05/27 13:25:30;;;;;;;8.80;2.33;;;;;;;20.17;40.08;102131.09;4938211;29;20038;-82
2022/05/27 13:27:59;;;;;;;12.70;2.45;;;;;;;20.29;39.07;102124.56;4934709;29;20406;-81
2022/05/27 13:31:02;;;;;;;8.48;2.20;;;;;;;20.48;38.13;102123.72;4937750;29;20058;-81
2022/05/27 13:33:44;;;;;;;8.55;2.63;;;;;;;20.31;37.40;102127.09;4928220;29;20031;-81
2022/05/27 13:36:22;;;;;;;6.97;2.08;;;;;;;20.46;37.18;102124.84;4927289;29;20042;-81
2022/05/27 13:38:58;;;;;;;6.32;2.05;;;;;;;20.54;34.57;102123.13;4939513;29;20066;-81